Roaring Gap, NC

3:53 AM EDT on April 28, 2015 (GMT -0400)
High Country Lights | | Change Station
CLOSE
Current Station
Personal Weather Station
Location: Ennice, NC
Elevation: 2871 ft
Nearby Weather Stations
Active Advisory: Frost Advisory

Elev 2871 ft 36.51 °N, 80.95 °W | Updated 3 minutes ago

Clear
Clear
35.9 °F
Feels Like 36 °F
N
0.0
Wind Variable Wind from NNW
Gusts 3.0 mph

Today
High -- | Low -- °F
--% Chance of Precip.
Yesterday
High -- | Low -- °F
Precip. -- in
6:34 AM 8:09 PM
Waxing Gibbous, 71% visible
Pressure 30.00 in
Visibility 10.0 miles
Clouds Clear
Windchill 36 °F
Dew Point 31 °F
Humidity 83%
Rainfall 0.00 in
Snow Depth Not available.
UV 0 out of 12
Pollen 10.10 out of 12
Air Quality Not available.
Flu Activity Sporadic
METAR KUKF 280735Z AUTO 00000KT 10SM CLR 02/01 A3000 RMK AO2

More Conditions Fewer Conditions

Pressure 30.00 in
Visibility 10.0 miles
Clouds Clear
Windchill 36 °F
Dew Point 31 °F
Humidity 83%
Rainfall 0.00 in
Snow Depth Not available.
UV 0 out of 12
Pollen 10.10 out of 12
Air Quality Not available.
Flu Activity Sporadic
METAR KUKF 280735Z AUTO 00000KT 10SM CLR 02/01 A3000 RMK AO2

More Conditions Fewer Conditions

10-Day Weather Forecast

Almanac

Astronomy

Apr. 28, 2015 Rise Set
Actual Time
Civil Twilight
Nautical Twilight
Astronomical Twilight
Moon
Length of Visible Light
Length of Day
Tomorrow will be .
, % of the Moon is Illuminated

Today's Extremes

State Highs State Lows

Community

WunderPhotos

Upload Photos

1,817,596 photos uploaded!

WunderBlogs® & News

Nearby

Air Quality

  Air Quality AQ Index Pollutant
Not available.

Snow Depth

Station Depth Elevation

Earthquake Activity

City Distance Mag. Time & Date
Minimum magnitude displayed is 2.5.

Coastal Water Temperatures

Place Temperature

Stations

Nearby Weather Stations

Station Location Temp. Windchill Dew Point Humidity Wind Precip. Elev Updated Type
                   
Frost Advisory
Statement as of 10:53 PM EDT on April 27, 2015

... Frost advisory remains in effect from 2 am to 9 am EDT
Tuesday...

* locations... from the Blue Ridge west

* hazards... areas of frost

* temperatures... middle 30s.

* Timing... late tonight through early Tuesday morning

* impacts... cold injury to tender vegetation

Precautionary/preparedness actions...

A frost advisory means that frost is possible. Sensitive outdoor
plants may be killed if left uncovered.